Time;durP1;ratioP1;P1;durP2;ratioP2;P2;SDS_P1;SDS_P2;PMS_P1;PMS_P2;Temp;Humidity;BMP_temperature;BMP_pressure;BME280_temperature;BME280_humidity;BME280_pressure;Samples;Min_cycle;Max_cycle;Signal;HPM_P1;HPM_P2
2023/07/17 00:00:54;;;;;;;16.67;7.35;;;;;;;29.78;34.59;99199.97;4947781;28;20137;-72
2023/07/17 00:03:22;;;;;;;16.42;7.13;;;;;;;29.97;34.63;99208.22;4958454;28;20081;-71
2023/07/17 00:05:58;;;;;;;22.75;7.35;;;;;;;30.17;34.08;99196.97;4985096;28;20064;-71
2023/07/17 00:08:26;;;;;;;13.95;6.80;;;;;;;29.87;34.33;99203.69;5030909;28;20068;-71
2023/07/17 00:10:52;;;;;;;12.32;6.88;;;;;;;29.95;34.47;99199.47;4983743;28;20049;-70
2023/07/17 00:13:22;;;;;;;15.00;7.15;;;;;;;29.98;34.11;99199.72;4999710;28;20144;-70
2023/07/17 00:15:52;;;;;;;17.30;6.82;;;;;;;30.36;33.25;99200.56;5010285;28;20545;-71
2023/07/17 00:18:20;;;;;;;19.10;7.53;;;;;;;30.19;33.59;99209.25;5010758;28;20366;-71
2023/07/17 00:20:51;;;;;;;15.27;7.28;;;;;;;29.90;34.08;99203.09;4962350;28;20443;-70
2023/07/17 00:23:24;;;;;;;16.00;7.80;;;;;;;29.59;34.71;99210.03;4979227;28;20050;-70
2023/07/17 00:26:00;;;;;;;12.88;7.97;;;;;;;29.67;35.03;99200.38;4977473;28;20054;-75
2023/07/17 00:28:27;;;;;;;14.13;7.90;;;;;;;29.13;35.70;99204.25;4976443;28;20519;-72
2023/07/17 00:30:53;;;;;;;15.48;9.05;;;;;;;28.88;36.21;99204.44;4960298;28;20062;-70
2023/07/17 00:33:21;;;;;;;17.65;9.52;;;;;;;28.91;36.24;99201.13;4961753;28;20511;-69
2023/07/17 00:35:51;;;;;;;13.20;9.65;;;;;;;28.88;36.41;99203.63;5002137;28;20045;-70
2023/07/17 00:38:18;;;;;;;19.80;10.77;;;;;;;28.56;36.65;99206.91;4989800;28;20049;-70
2023/07/17 00:40:44;;;;;;;21.45;11.02;;;;;;;28.44;36.96;99206.41;4978871;28;20118;-70
2023/07/17 00:43:11;;;;;;;17.92;10.57;;;;;;;28.47;37.33;99199.59;4970373;28;20053;-71
2023/07/17 00:45:48;;;;;;;19.23;9.15;;;;;;;28.53;37.27;99212.94;4991252;28;20054;-70
2023/07/17 00:48:14;;;;;;;16.00;10.07;;;;;;;28.26;37.69;99207.09;5011126;28;20120;-70
2023/07/17 00:50:41;;;;;;;15.23;9.43;;;;;;;28.14;37.85;99208.53;4978175;28;20057;-69
2023/07/17 00:53:08;;;;;;;17.17;9.02;;;;;;;28.23;38.11;99209.56;4994480;28;20057;-70
2023/07/17 00:55:39;;;;;;;21.73;9.63;;;;;;;28.15;38.17;99204.69;4978261;28;20038;-70
2023/07/17 00:58:07;;;;;;;18.45;9.10;;;;;;;27.99;38.24;99204.78;4994552;28;20046;-70
2023/07/17 01:00:37;;;;;;;14.48;8.82;;;;;;;28.04;38.43;99212.13;5014532;28;20071;-70
2023/07/17 01:03:05;;;;;;;17.02;8.23;;;;;;;27.93;38.57;99199.63;4999063;28;20507;-71
2023/07/17 01:05:31;;;;;;;16.90;8.60;;;;;;;27.85;38.44;99202.91;4985317;28;20491;-71
2023/07/17 01:08:02;;;;;;;15.60;8.32;;;;;;;27.82;38.53;99198.00;4984812;28;20081;-71
2023/07/17 01:10:32;;;;;;;11.23;7.65;;;;;;;27.82;38.72;99203.47;5016710;28;20741;-71
2023/07/17 01:13:25;;;;;;;15.02;8.48;;;;;;;27.82;38.64;99204.28;5018476;28;20055;-71
2023/07/17 01:15:57;;;;;;;11.35;8.27;;;;;;;27.99;38.80;99209.41;5006768;28;20050;-73
2023/07/17 01:18:30;;;;;;;15.20;8.18;;;;;;;27.81;38.71;99204.56;4995197;28;20049;-72
2023/07/17 01:20:56;;;;;;;15.52;7.95;;;;;;;27.79;38.62;99204.03;4995302;28;20061;-73
2023/07/17 01:23:22;;;;;;;18.08;9.00;;;;;;;27.80;38.78;99216.59;4963051;28;20056;-73
2023/07/17 01:25:48;;;;;;;20.58;8.60;;;;;;;27.77;39.00;99212.50;4995438;28;20046;-71
2023/07/17 01:28:13;;;;;;;20.25;8.50;;;;;;;27.73;39.22;99210.59;4994037;28;20075;-70
2023/07/17 01:30:40;;;;;;;13.43;7.95;;;;;;;27.73;39.01;99208.72;4995300;28;20260;-70
2023/07/17 01:33:06;;;;;;;15.00;7.68;;;;;;;27.74;39.20;99212.22;4995273;28;20392;-72
2023/07/17 01:35:32;;;;;;;12.40;7.97;;;;;;;27.73;39.05;99214.16;4994761;28;20435;-73
2023/07/17 01:37:59;;;;;;;12.65;7.95;;;;;;;27.74;39.00;99207.59;4995067;28;20131;-71
2023/07/17 01:40:26;;;;;;;12.85;7.93;;;;;;;27.76;39.08;99216.34;4993974;28;20048;-70
2023/07/17 01:42:52;;;;;;;17.42;8.32;;;;;;;27.66;38.75;99199.97;5010949;28;20049;-72
2023/07/17 01:45:18;;;;;;;11.00;7.65;;;;;;;27.76;38.82;99210.03;4994976;28;20057;-73
2023/07/17 01:47:44;;;;;;;14.45;8.63;;;;;;;27.77;38.80;99211.66;4978607;28;20072;-72
2023/07/17 01:50:10;;;;;;;17.60;7.85;;;;;;;27.90;38.81;99219.31;4982656;28;20038;-71
2023/07/17 01:52:37;;;;;;;20.73;7.80;;;;;;;27.90;38.63;99230.22;5002410;28;20076;-72
2023/07/17 01:55:04;;;;;;;16.38;7.72;;;;;;;27.98;38.55;99235.09;4998164;28;20564;-72
2023/07/17 01:57:30;;;;;;;17.25;7.90;;;;;;;27.89;38.42;99220.41;4981921;28;20056;-72
2023/07/17 01:59:57;;;;;;;15.85;8.50;;;;;;;28.16;38.19;99220.81;4998268;28;20376;-71
2023/07/17 02:02:23;;;;;;;14.93;7.80;;;;;;;28.03;38.32;99215.97;4996012;28;20431;-73
2023/07/17 02:04:50;;;;;;;14.48;7.72;;;;;;;28.12;37.78;99225.19;4980340;28;20045;-73
2023/07/17 02:07:15;;;;;;;14.15;7.95;;;;;;;28.00;38.21;99228.25;4995903;28;20072;-72
2023/07/17 02:09:41;;;;;;;11.88;8.23;;;;;;;28.06;38.00;99226.34;4995568;28;20065;-73
2023/07/17 02:12:08;;;;;;;16.63;7.65;;;;;;;28.11;38.08;99218.09;5011964;28;20048;-74
2023/07/17 02:14:39;;;;;;;13.10;8.07;;;;;;;28.36;38.05;99237.06;4964944;28;20138;-73
2023/07/17 02:17:10;;;;;;;12.25;7.82;;;;;;;28.08;37.89;99229.56;5015967;28;20128;-73
2023/07/17 02:19:37;;;;;;;18.80;8.00;;;;;;;28.26;38.19;99225.38;4996881;28;20080;-72
2023/07/17 02:22:03;;;;;;;20.80;8.77;;;;;;;28.11;38.01;99234.47;5011527;28;20152;-75
2023/07/17 02:24:29;;;;;;;13.90;8.02;;;;;;;28.13;37.96;99237.75;5027907;28;20048;-76
2023/07/17 02:26:55;;;;;;;19.17;8.23;;;;;;;28.17;38.13;99233.34;5025735;28;20065;-75
2023/07/17 02:29:21;;;;;;;14.10;8.57;;;;;;;28.20;38.01;99232.78;5012912;28;20045;-77
2023/07/17 02:31:47;;;;;;;14.30;8.30;;;;;;;28.29;37.89;99233.03;5014613;28;20056;-75
2023/07/17 02:34:13;;;;;;;17.17;7.35;;;;;;;28.14;37.90;99235.84;4998136;28;20392;-75
2023/07/17 02:36:42;;;;;;;12.77;7.75;;;;;;;28.28;38.04;99236.84;5030914;28;20041;-75
2023/07/17 02:39:08;;;;;;;10.07;7.40;;;;;;;28.19;38.02;99233.06;4984515;28;20108;-77
2023/07/17 02:41:34;;;;;;;12.68;6.72;;;;;;;28.26;37.74;99237.16;4984826;28;20256;-76
2023/07/17 02:44:00;;;;;;;13.93;7.72;;;;;;;28.30;37.85;99237.38;5013332;28;20047;-75
2023/07/17 02:46:26;;;;;;;14.95;8.35;;;;;;;28.35;37.68;99242.81;4983260;28;20064;-73
2023/07/17 02:48:52;;;;;;;16.05;8.13;;;;;;;28.34;37.59;99249.38;5016113;28;20036;-71
2023/07/17 02:51:18;;;;;;;16.27;8.05;;;;;;;28.31;37.33;99245.28;4999185;28;20550;-71
2023/07/17 02:53:44;;;;;;;16.40;9.05;;;;;;;28.35;37.53;99245.53;5048440;28;20053;-68
2023/07/17 02:56:10;;;;;;;13.60;8.93;;;;;;;28.35;37.71;99251.00;5031590;28;20051;-69
2023/07/17 02:58:42;;;;;;;13.75;8.70;;;;;;;28.68;37.53;99255.72;5048376;28;20045;-70
2023/07/17 03:01:10;;;;;;;16.50;8.73;;;;;;;28.49;37.65;99252.88;5031371;28;20041;-69
2023/07/17 03:03:37;;;;;;;19.25;8.98;;;;;;;28.47;37.56;99249.59;5029789;28;20049;-71
2023/07/17 03:06:04;;;;;;;19.52;9.73;;;;;;;28.54;37.38;99252.81;5053106;28;20599;-70
2023/07/17 03:08:30;;;;;;;14.05;8.60;;;;;;;28.44;37.41;99243.84;5050908;28;20080;-70
2023/07/17 03:10:56;;;;;;;22.13;8.73;;;;;;;28.52;37.37;99251.47;5052273;28;20126;-70
2023/07/17 03:13:21;;;;;;;17.50;9.00;;;;;;;28.51;37.41;99258.84;5017150;28;20464;-70
2023/07/17 03:15:48;;;;;;;17.80;9.13;;;;;;;28.61;37.55;99256.06;5050969;28;20060;-68
2023/07/17 03:18:14;;;;;;;17.48;8.65;;;;;;;28.60;37.41;99265.34;5016485;28;20406;-69
2023/07/17 03:20:44;;;;;;;19.98;9.00;;;;;;;28.87;37.59;99264.88;5049897;28;20044;-69
2023/07/17 03:23:10;;;;;;;19.00;9.00;;;;;;;28.67;37.19;99249.47;5050346;28;20435;-67
2023/07/17 03:25:36;;;;;;;17.63;8.82;;;;;;;28.61;37.43;99264.25;4983753;28;20052;-71
2023/07/17 03:28:03;;;;;;;17.90;8.70;;;;;;;28.67;37.37;99254.09;5049452;28;20083;-71
2023/07/17 03:30:31;;;;;;;22.15;8.55;;;;;;;28.81;36.92;99266.84;5049392;28;20055;-69
2023/07/17 03:32:59;;;;;;;16.02;8.38;;;;;;;28.90;36.64;99265.13;5048277;28;20045;-68
2023/07/17 03:35:25;;;;;;;14.00;8.80;;;;;;;28.84;37.07;99266.28;5049619;28;20041;-70
2023/07/17 03:37:51;;;;;;;17.90;10.02;;;;;;;28.72;37.29;99256.81;5017620;28;20469;-69
2023/07/17 03:40:17;;;;;;;19.25;9.23;;;;;;;28.72;37.32;99254.91;5054177;28;20049;-73
2023/07/17 03:42:42;;;;;;;19.80;9.23;;;;;;;28.77;37.19;99256.78;5053010;28;20036;-68
2023/07/17 03:45:09;;;;;;;16.10;9.05;;;;;;;28.84;37.19;99262.72;5052632;28;20094;-68
2023/07/17 03:47:37;;;;;;;16.20;8.73;;;;;;;28.85;37.20;99256.97;5034992;28;20532;-71
2023/07/17 03:50:04;;;;;;;14.68;9.52;;;;;;;29.00;36.88;99262.28;5053123;28;20045;-72
2023/07/17 03:52:30;;;;;;;14.68;9.35;;;;;;;28.95;37.04;99261.53;5019836;28;20418;-68
2023/07/17 03:54:56;;;;;;;18.73;9.40;;;;;;;28.66;38.15;99266.94;5053552;28;20110;-70
2023/07/17 03:57:24;;;;;;;17.98;8.68;;;;;;;28.99;38.01;99268.06;5019514;28;20147;-74
2023/07/17 03:59:54;;;;;;;15.90;7.72;;;;;;;29.50;36.95;99266.50;5052551;28;20124;-72
2023/07/17 04:02:33;;;;;;;13.40;7.88;;;;;;;29.95;35.40;99276.16;5053292;28;20037;-72
2023/07/17 04:05:00;;;;;;;18.75;8.75;;;;;;;30.26;34.98;99274.69;5052720;28;20075;-74
2023/07/17 04:07:26;;;;;;;22.20;8.35;;;;;;;30.38;34.57;99275.91;5052589;28;20057;-69
2023/07/17 04:09:51;;;;;;;17.55;8.55;;;;;;;30.54;34.71;99285.50;5036698;28;20051;-72
2023/07/17 04:12:17;;;;;;;14.90;8.18;;;;;;;30.38;34.51;99262.19;5019456;28;20047;-74
2023/07/17 04:14:43;;;;;;;18.23;8.85;;;;;;;30.52;34.50;99267.75;5036132;28;20041;-72
2023/07/17 04:17:10;;;;;;;26.83;8.90;;;;;;;30.60;34.42;99275.31;5051843;28;20510;-72
2023/07/17 04:19:36;;;;;;;16.65;8.05;;;;;;;30.63;34.19;99277.44;5019255;28;20076;-72
2023/07/17 04:22:02;;;;;;;14.60;8.07;;;;;;;30.79;34.07;99276.13;5052338;28;20072;-73
2023/07/17 04:24:29;;;;;;;14.98;8.27;;;;;;;31.05;33.57;99261.69;5035520;28;20037;-71
2023/07/17 04:26:56;;;;;;;17.55;8.65;;;;;;;31.33;33.66;99259.03;5053766;28;20384;-72
2023/07/17 04:29:23;;;;;;;16.48;8.25;;;;;;;31.60;32.59;99265.38;5021025;28;20136;-73
2023/07/17 04:31:53;;;;;;;11.52;8.00;;;;;;;31.55;32.32;99251.78;5053264;28;20045;-72
2023/07/17 04:34:20;;;;;;;12.15;7.30;;;;;;;31.65;31.93;99270.78;5036706;28;20411;-72
2023/07/17 04:36:46;;;;;;;13.10;7.93;;;;;;;31.51;32.07;99267.22;5052450;28;20114;-72
2023/07/17 04:39:12;;;;;;;12.90;7.55;;;;;;;31.31;32.25;99272.28;5035616;28;20099;-72
2023/07/17 04:41:39;;;;;;;23.10;8.30;;;;;;;31.54;32.39;99274.03;5035201;28;20037;-72
2023/07/17 04:44:05;;;;;;;14.82;8.25;;;;;;;31.49;32.54;99279.63;5052545;28;20037;-72
2023/07/17 04:46:31;;;;;;;18.08;9.70;;;;;;;31.70;32.05;99272.63;5051970;28;20056;-72
2023/07/17 04:48:57;;;;;;;17.63;9.10;;;;;;;31.80;32.25;99272.44;5050681;28;20534;-69
2023/07/17 04:51:23;;;;;;;15.63;7.70;;;;;;;32.00;32.08;99289.34;5019038;28;20182;-73
2023/07/17 04:53:50;;;;;;;12.82;10.90;;;;;;;32.12;32.09;99283.34;5035132;28;20055;-73
2023/07/17 04:56:16;;;;;;;15.13;7.95;;;;;;;32.23;31.22;99288.28;5051629;28;20045;-72
2023/07/17 04:58:44;;;;;;;12.43;8.02;;;;;;;32.09;31.43;99279.25;5051429;28;20065;-72
2023/07/17 05:01:10;;;;;;;12.93;7.47;;;;;;;32.12;31.75;99277.84;5034753;28;20063;-72
2023/07/17 05:03:36;;;;;;;14.15;7.45;;;;;;;32.28;31.47;99285.44;5034807;28;20048;-70
2023/07/17 05:06:03;;;;;;;13.05;7.10;;;;;;;32.48;31.51;99279.53;5052542;28;20048;-71
2023/07/17 05:08:30;;;;;;;12.30;6.18;;;;;;;32.52;30.75;99275.03;5034031;28;20064;-70
2023/07/17 05:10:59;;;;;;;12.52;7.43;;;;;;;32.83;30.81;99277.06;5034190;28;20541;-70
2023/07/17 05:13:32;;;;;;;12.43;6.05;;;;;;;33.00;29.98;99280.78;5016908;28;20049;-69
2023/07/17 05:16:02;;;;;;;8.05;4.78;;;;;;;33.14;28.63;99277.97;5021070;28;20045;-70
2023/07/17 05:18:30;;;;;;;11.60;5.53;;;;;;;33.27;28.42;99282.59;5013710;28;20045;-70
2023/07/17 05:20:55;;;;;;;8.52;4.85;;;;;;;33.39;28.28;99285.59;4981344;28;20067;-70
2023/07/17 05:23:21;;;;;;;14.73;5.28;;;;;;;33.19;28.79;99283.34;5012857;28;20049;-70
2023/07/17 05:25:56;;;;;;;8.20;5.38;;;;;;;33.72;27.71;99289.66;5029732;28;20494;-69
2023/07/17 05:28:24;;;;;;;9.95;5.20;;;;;;;33.38;28.51;99283.97;4996725;28;20057;-69
2023/07/17 05:30:52;;;;;;;11.07;4.70;;;;;;;33.68;28.17;99283.16;4996961;28;20637;-70
2023/07/17 05:33:18;;;;;;;10.88;4.93;;;;;;;33.86;27.22;99282.91;5029740;28;20425;-71
2023/07/17 05:35:44;;;;;;;11.23;4.90;;;;;;;33.78;27.60;99282.88;5012592;28;20107;-70
2023/07/17 05:38:10;;;;;;;7.32;5.00;;;;;;;33.98;26.87;99282.34;5029815;28;20048;-69
2023/07/17 05:40:37;;;;;;;7.15;4.82;;;;;;;33.98;26.89;99285.91;5046735;28;20049;-70
2023/07/17 05:43:04;;;;;;;11.43;5.03;;;;;;;33.94;26.11;99287.69;5030437;28;20045;-70
2023/07/17 05:45:31;;;;;;;7.45;4.40;;;;;;;33.65;26.72;99283.78;5032355;28;21668;-69
2023/07/17 05:47:57;;;;;;;7.47;4.53;;;;;;;33.92;26.33;99283.63;5049887;28;20048;-71
2023/07/17 05:50:24;;;;;;;8.43;4.70;;;;;;;34.03;25.82;99284.94;5050174;28;20045;-71
2023/07/17 05:52:50;;;;;;;8.48;4.50;;;;;;;34.00;25.35;99282.81;5049978;28;20045;-70
2023/07/17 05:55:16;;;;;;;8.93;4.25;;;;;;;34.06;25.31;99287.06;5016797;28;20419;-71
2023/07/17 05:57:42;;;;;;;12.27;4.93;;;;;;;34.16;24.93;99284.84;5033495;28;20041;-71
2023/07/17 06:00:11;;;;;;;8.95;4.38;;;;;;;34.46;24.91;99283.09;5049824;28;20532;-71
2023/07/17 06:02:39;;;;;;;8.32;4.90;;;;;;;34.34;25.28;99282.91;5049183;28;20041;-70
2023/07/17 06:05:05;;;;;;;11.45;4.90;;;;;;;34.19;25.46;99286.13;5050968;28;20045;-69
2023/07/17 06:07:31;;;;;;;7.63;4.38;;;;;;;34.40;25.08;99269.81;5051075;28;20053;-72
2023/07/17 06:09:57;;;;;;;9.10;4.22;;;;;;;34.36;25.48;99285.34;5051841;28;20044;-71
2023/07/17 06:12:23;;;;;;;7.18;4.25;;;;;;;34.68;24.88;99287.66;5049405;28;20387;-71
2023/07/17 06:14:49;;;;;;;6.70;3.83;;;;;;;34.72;25.19;99281.19;5033255;28;20388;-72
2023/07/17 06:17:15;;;;;;;8.60;4.30;;;;;;;35.05;24.58;99289.81;5029890;28;20096;-71
2023/07/17 06:19:41;;;;;;;7.78;3.88;;;;;;;35.24;24.28;99277.25;5030158;28;20484;-71
2023/07/17 06:22:07;;;;;;;7.03;4.10;;;;;;;35.30;24.69;99281.50;5030064;28;20134;-73
2023/07/17 06:24:32;;;;;;;8.98;4.30;;;;;;;35.15;25.47;99284.75;5029569;28;20041;-70
2023/07/17 06:26:59;;;;;;;8.80;4.47;;;;;;;34.99;24.91;99280.91;5030791;28;20041;-69
2023/07/17 06:29:26;;;;;;;10.13;4.10;;;;;;;35.15;24.26;99276.47;5013755;28;20041;-72
2023/07/17 06:31:52;;;;;;;7.50;3.90;;;;;;;35.19;24.23;99279.41;5013590;28;20080;-71
2023/07/17 06:34:20;;;;;;;6.97;3.60;;;;;;;35.10;24.48;99275.84;5031025;28;20086;-73
2023/07/17 06:36:49;;;;;;;5.70;4.00;;;;;;;35.40;24.15;99274.81;5030372;28;20507;-71
2023/07/17 06:39:15;;;;;;;9.30;4.22;;;;;;;35.40;23.45;99285.88;5030492;28;20056;-72
2023/07/17 06:41:41;;;;;;;9.13;3.53;;;;;;;35.44;23.40;99282.09;5025421;28;20057;-70
2023/07/17 06:44:08;;;;;;;4.80;3.33;;;;;;;35.46;23.48;99262.44;5033301;28;20059;-71
2023/07/17 06:46:34;;;;;;;5.30;3.67;;;;;;;35.52;22.33;99278.53;5044150;28;20160;-70
2023/07/17 06:48:59;;;;;;;6.30;3.58;;;;;;;35.54;22.85;99267.13;5038600;28;20189;-70
2023/07/17 06:51:26;;;;;;;5.53;3.90;;;;;;;35.80;22.85;99262.31;5041325;28;20055;-71
2023/07/17 06:53:53;;;;;;;6.57;3.33;;;;;;;35.92;22.94;99267.19;5042821;28;20585;-72
2023/07/17 06:56:19;;;;;;;5.65;3.70;;;;;;;35.98;22.85;99265.84;5024575;28;20524;-71
2023/07/17 06:58:44;;;;;;;6.38;3.70;;;;;;;35.85;22.87;99255.81;5040660;28;20044;-71
2023/07/17 07:01:14;;;;;;;8.15;4.22;;;;;;;36.16;22.60;99265.41;5028494;28;20128;-70
2023/07/17 07:03:43;;;;;;;7.15;3.80;;;;;;;36.50;21.92;99262.44;5039539;28;20507;-71
2023/07/17 07:06:09;;;;;;;4.70;3.30;;;;;;;36.50;22.10;99267.97;5025598;28;20357;-71
2023/07/17 07:08:35;;;;;;;7.85;3.70;;;;;;;36.78;22.30;99254.44;5030030;28;20072;-73
2023/07/17 07:11:02;;;;;;;10.18;3.55;;;;;;;37.05;21.00;99268.50;5026276;28;20044;-72
2023/07/17 07:13:29;;;;;;;6.85;3.47;;;;;;;37.08;21.00;99251.22;5024452;28;20454;-73
2023/07/17 07:15:55;;;;;;;6.80;3.42;;;;;;;37.30;21.01;99269.41;5028779;28;20083;-75
2023/07/17 07:18:21;;;;;;;9.13;3.78;;;;;;;37.47;20.46;99257.31;5042495;28;20084;-75
2023/07/17 07:20:51;;;;;;;5.03;3.08;;;;;;;37.87;20.07;99267.47;5041816;28;20033;-75
2023/07/17 07:23:17;;;;;;;6.22;3.25;;;;;;;38.31;19.08;99265.72;5040651;28;20037;-76
2023/07/17 07:25:43;;;;;;;7.25;3.30;;;;;;;38.68;18.80;99267.28;5043591;28;20053;-74
2023/07/17 07:28:11;;;;;;;7.53;2.92;;;;;;;39.27;18.18;99268.22;5026380;28;20045;-75
2023/07/17 07:30:37;;;;;;;5.03;2.78;;;;;;;39.91;17.67;99271.53;5028234;28;20045;-76
2023/07/17 07:33:03;;;;;;;8.02;3.38;;;;;;;40.50;16.82;99268.56;5027840;28;20079;-76
2023/07/17 07:35:29;;;;;;;6.47;2.97;;;;;;;41.37;16.13;99271.56;5041145;28;20045;-73
2023/07/17 07:37:55;;;;;;;7.47;2.97;;;;;;;42.17;15.66;99272.22;5030905;28;20041;-74
2023/07/17 07:40:21;;;;;;;5.28;2.80;;;;;;;43.38;14.21;99270.63;5040699;28;20080;-77
2023/07/17 07:42:47;;;;;;;5.43;2.50;;;;;;;44.76;13.17;99272.56;5041572;28;20360;-71
2023/07/17 07:45:13;;;;;;;5.72;2.42;;;;;;;46.42;12.19;99269.63;5030737;28;20380;-70
2023/07/17 07:47:39;;;;;;;5.63;2.63;;;;;;;48.23;10.89;99266.19;5036897;28;20121;-69
2023/07/17 07:50:06;;;;;;;9.68;2.60;;;;;;;50.25;9.50;99272.25;5052581;28;20103;-70
2023/07/17 07:52:32;;;;;;;5.43;2.80;;;;;;;51.82;8.14;99267.25;5049371;28;20040;-70
2023/07/17 07:54:58;;;;;;;4.68;2.40;;;;;;;53.22;7.55;99264.56;5015939;28;20468;-69
2023/07/17 07:57:24;;;;;;;5.18;2.83;;;;;;;54.36;6.95;99255.44;5042850;28;20048;-73
2023/07/17 07:59:50;;;;;;;5.93;2.28;;;;;;;54.73;6.31;99256.56;5042031;28;20033;-70
2023/07/17 08:02:17;;;;;;;4.68;2.25;;;;;;;54.93;6.30;99251.31;5039411;28;20045;-70
2023/07/17 08:04:43;;;;;;;7.93;1.95;;;;;;;55.43;5.82;99250.13;5039779;28;20076;-70
2023/07/17 08:07:10;;;;;;;3.83;2.10;;;;;;;55.92;5.69;99246.03;5042380;28;20053;-71
2023/07/17 08:09:35;;;;;;;6.95;1.95;;;;;;;56.66;5.20;99244.81;5025180;28;20069;-70
2023/07/17 08:12:01;;;;;;;7.25;2.53;;;;;;;56.50;5.06;99248.00;5042188;28;20511;-70
2023/07/17 08:14:27;;;;;;;4.53;2.10;;;;;;;57.08;4.92;99246.47;5027097;28;20068;-70
2023/07/17 08:16:53;;;;;;;8.23;2.22;;;;;;;57.72;4.74;99235.53;5042054;28;20036;-71
2023/07/17 08:19:19;;;;;;;3.92;1.92;;;;;;;58.26;4.37;99229.44;5048820;28;20130;-70
2023/07/17 08:21:45;;;;;;;4.38;2.10;;;;;;;58.60;4.37;99222.28;5052594;28;20055;-69
2023/07/17 08:24:11;;;;;;;4.43;2.10;;;;;;;59.34;4.23;99224.66;5025876;28;20061;-70
2023/07/17 08:29:33;;;;;;;2.60;1.85;;;;;;;60.45;3.63;99224.06;5042962;28;20055;-72
2023/07/17 08:32:00;;;;;;;9.20;2.20;;;;;;;60.50;3.77;99223.34;5024075;28;20056;-75
2023/07/17 08:34:26;;;;;;;6.25;2.05;;;;;;;60.70;3.30;99214.66;5041654;28;20036;-69
2023/07/17 08:36:52;;;;;;;10.77;2.33;;;;;;;60.56;3.32;99217.66;5042403;28;20120;-70
2023/07/17 08:39:18;;;;;;;7.72;2.55;;;;;;;60.48;3.17;99205.81;5042496;28;20137;-69
2023/07/17 08:41:49;;;;;;;8.55;2.38;;;;;;;60.26;3.30;99192.00;4995035;28;20037;-71
2023/07/17 08:44:18;;;;;;;6.60;2.40;;;;;;;60.90;3.14;99196.56;4992992;28;20065;-70
2023/07/17 08:46:46;;;;;;;4.43;2.20;;;;;;;61.33;3.12;99189.59;5017435;28;20111;-72
2023/07/17 08:49:17;;;;;;;11.05;2.95;;;;;;;61.85;2.80;99196.69;5050508;28;20052;-72
2023/07/17 08:51:47;;;;;;;6.20;2.67;;;;;;;62.03;2.43;99192.53;5051129;28;20045;-71
2023/07/17 08:54:15;;;;;;;3.43;2.80;;;;;;;62.18;2.49;99193.16;5027655;28;20060;-72
2023/07/17 08:56:44;;;;;;;10.00;3.58;;;;;;;62.36;2.43;99181.97;5041436;28;20583;-73
2023/07/17 08:59:11;;;;;;;7.05;3.20;;;;;;;62.69;2.00;99179.13;5008500;28;20061;-71
2023/07/17 09:01:37;;;;;;;7.32;2.65;;;;;;;62.55;2.24;99182.22;5024680;28;20190;-71
2023/07/17 09:04:04;;;;;;;11.70;2.47;;;;;;;62.88;1.81;99191.72;5039222;28;20565;-71
2023/07/17 09:06:30;;;;;;;5.90;2.25;;;;;;;63.05;1.98;99185.91;4999733;28;20467;-73
2023/07/17 09:08:56;;;;;;;12.20;2.40;;;;;;;63.24;1.80;99192.69;5037863;28;20063;-75
2023/07/17 09:11:22;;;;;;;7.10;2.00;;;;;;;63.16;1.77;99177.28;5041233;28;20139;-72
2023/07/17 09:13:49;;;;;;;3.75;1.70;;;;;;;63.03;1.78;99177.81;4988354;28;20042;-73
2023/07/17 09:16:19;;;;;;;3.15;2.00;;;;;;;63.68;1.57;99175.31;5008472;28;20045;-73
2023/07/17 09:18:46;;;;;;;5.90;2.20;;;;;;;64.28;1.66;99185.78;5002867;28;20104;-73
2023/07/17 09:21:17;;;;;;;6.60;2.20;;;;;;;64.33;1.40;99173.38;4992836;28;20515;-74
2023/07/17 09:23:47;;;;;;;5.28;1.95;;;;;;;64.17;1.39;99168.50;5003817;28;20080;-74
2023/07/17 09:26:18;;;;;;;5.10;2.20;;;;;;;64.38;1.23;99169.69;5018680;28;20047;-72
2023/07/17 09:28:57;;;;;;;5.32;2.22;;;;;;;64.97;1.47;99162.38;5019398;28;20049;-72
2023/07/17 09:31:46;;;;;;;5.13;2.00;;;;;;;65.05;1.17;99169.16;5018682;28;20069;-74
2023/07/17 09:34:15;;;;;;;6.75;2.03;;;;;;;64.75;0.94;99177.06;4967592;28;20052;-72
2023/07/17 09:36:48;;;;;;;6.30;2.05;;;;;;;64.70;1.59;99162.06;5019638;28;20128;-74
2023/07/17 09:39:14;;;;;;;8.38;1.88;;;;;;;65.00;1.19;99158.44;5020810;28;20049;-75
2023/07/17 09:41:40;;;;;;;8.15;1.60;;;;;;;65.32;1.05;99168.06;5002627;28;20042;-73
2023/07/17 09:44:07;;;;;;;8.23;1.95;;;;;;;65.57;0.58;99158.84;5009927;28;20408;-71
2023/07/17 09:46:36;;;;;;;12.55;1.95;;;;;;;65.58;0.77;99159.63;5040672;28;20037;-73
2023/07/17 09:49:06;;;;;;;7.07;2.00;;;;;;;64.51;1.20;99154.66;5025370;28;20460;-72
2023/07/17 09:51:32;;;;;;;10.13;1.98;;;;;;;64.18;1.41;99151.94;4992389;28;20521;-72
2023/07/17 09:53:58;;;;;;;8.30;2.90;;;;;;;63.46;1.55;99149.41;5031692;28;20044;-71
2023/07/17 09:56:28;;;;;;;6.57;2.88;;;;;;;60.64;2.51;99126.88;5031139;28;20045;-72
2023/07/17 09:58:59;;;;;;;6.95;2.67;;;;;;;59.52;3.11;99126.13;5031118;28;20045;-70
2023/07/17 10:01:27;;;;;;;9.05;2.72;;;;;;;59.76;3.44;99126.72;5030141;28;20041;-72
2023/07/17 10:03:53;;;;;;;8.18;2.75;;;;;;;60.85;2.54;99132.03;5018788;28;20131;-72
2023/07/17 10:06:20;;;;;;;10.50;3.30;;;;;;;62.15;2.83;99139.50;5040653;28;20059;-71
2023/07/17 10:08:50;;;;;;;12.73;3.37;;;;;;;62.92;2.54;99136.69;5031313;28;20057;-72
2023/07/17 10:11:17;;;;;;;6.20;2.25;;;;;;;63.36;1.58;99136.59;5017034;28;20491;-75
2023/07/17 10:13:44;;;;;;;10.00;2.50;;;;;;;63.80;1.43;99135.66;5049384;28;20259;-75
2023/07/17 10:16:15;;;;;;;5.97;2.00;;;;;;;64.07;1.09;99128.94;5048587;28;20056;-74
2023/07/17 10:18:49;;;;;;;4.10;1.95;;;;;;;63.56;1.31;99124.75;5046825;28;20048;-73
2023/07/17 10:21:16;;;;;;;4.60;1.95;;;;;;;62.46;1.67;99119.13;5047912;28;20041;-74
2023/07/17 10:23:46;;;;;;;5.20;2.20;;;;;;;61.63;1.98;99125.47;5048473;28;20398;-73
2023/07/17 10:26:14;;;;;;;4.30;2.10;;;;;;;61.49;1.76;99119.88;5049296;28;20045;-73
2023/07/17 10:28:41;;;;;;;6.50;2.22;;;;;;;61.41;1.97;99113.06;5049553;28;20060;-72
2023/07/17 10:31:21;;;;;;;6.65;2.15;;;;;;;61.22;2.52;99104.06;5050086;28;20048;-74
2023/07/17 10:33:52;;;;;;;3.53;2.28;;;;;;;60.60;2.81;99107.00;5033056;28;20084;-74
2023/07/17 10:36:19;;;;;;;7.57;2.17;;;;;;;60.13;3.31;99105.50;5033048;28;20040;-74
2023/07/17 10:38:50;;;;;;;4.88;2.10;;;;;;;60.79;2.58;99093.88;5049306;28;20048;-73
2023/07/17 10:41:17;;;;;;;3.17;2.05;;;;;;;60.50;2.34;99094.91;5033834;28;20098;-73
2023/07/17 10:43:56;;;;;;;5.88;2.30;;;;;;;58.67;2.87;99085.25;5051044;28;20106;-74
2023/07/17 10:46:29;;;;;;;6.20;2.00;;;;;;;58.50;3.05;99089.94;5051008;28;20063;-73
2023/07/17 10:49:06;;;;;;;3.63;2.05;;;;;;;59.21;2.92;99088.72;5053118;28;20045;-73
2023/07/17 10:51:33;;;;;;;4.05;2.15;;;;;;;60.43;2.27;99077.38;5054056;28;20045;-73
2023/07/17 10:53:59;;;;;;;5.53;2.28;;;;;;;60.33;2.22;99081.72;5037485;28;20473;-73
2023/07/17 10:56:25;;;;;;;5.00;1.92;;;;;;;58.35;3.08;99071.16;5053837;28;20052;-73
2023/07/17 10:58:51;;;;;;;7.40;2.15;;;;;;;57.19;3.82;99061.03;5053784;28;20076;-73
2023/07/17 11:01:18;;;;;;;6.70;2.10;;;;;;;57.64;3.92;99062.78;5053241;28;20065;-74
2023/07/17 11:03:47;;;;;;;5.43;2.42;;;;;;;58.37;3.85;99065.75;5054137;28;20398;-71
2023/07/17 11:06:17;;;;;;;8.40;2.50;;;;;;;59.08;3.66;99069.81;5037036;28;20135;-72
2023/07/17 11:08:50;;;;;;;2.90;2.28;;;;;;;58.52;3.60;99061.59;5047088;28;20132;-73
2023/07/17 11:11:17;;;;;;;10.55;2.60;;;;;;;56.11;4.68;99058.63;5053129;28;20364;-74
2023/07/17 11:13:44;;;;;;;3.63;2.55;;;;;;;54.66;5.10;99051.91;5052999;28;20060;-72
2023/07/17 11:16:10;;;;;;;6.18;2.80;;;;;;;53.68;5.60;99052.84;5053520;28;20103;-73
2023/07/17 11:18:51;;;;;;;2.70;2.10;;;;;;;52.57;5.83;99042.78;5041293;28;20056;-73
2023/07/17 11:21:19;;;;;;;6.20;2.63;;;;;;;51.59;6.17;99034.38;5072366;28;20076;-72
2023/07/17 11:23:52;;;;;;;2.72;2.38;;;;;;;50.84;6.94;99039.56;5073559;28;20044;-71
2023/07/17 11:26:20;;;;;;;3.30;2.28;;;;;;;50.14;7.43;99034.28;5072715;28;20051;-72
2023/07/17 11:28:48;;;;;;;4.13;2.60;;;;;;;47.75;9.13;99030.91;5056195;28;20049;-73
2023/07/17 11:31:21;;;;;;;6.45;2.75;;;;;;;47.01;9.30;99034.44;5073314;28;20044;-72
2023/07/17 11:33:53;;;;;;;4.65;3.33;;;;;;;46.01;9.94;99035.41;5023302;28;20040;-72
2023/07/17 11:36:19;;;;;;;5.90;2.88;;;;;;;45.13;10.60;99024.38;5073326;28;20036;-72